Time;durP1;ratioP1;P1;durP2;ratioP2;P2;SDS_P1;SDS_P2;PMS_P1;PMS_P2;Temp;Humidity;BMP_temperature;BMP_pressure;BME280_temperature;BME280_humidity;BME280_pressure;Samples;Min_cycle;Max_cycle;Signal;HPM_P1;HPM_P2
2022/02/04 00:06:00;;;;;;;;;16.33;10.67;;;;;;;;5036195;28;45501;-95
2022/02/04 00:25:24;;;;;;;;;15.00;13.67;;;;;;;;4991988;28;45354;-96
2022/02/04 00:28:04;;;;;;;;;17.33;14.33;;;;;;;;4958225;28;47349;-95
2022/02/04 00:30:43;;;;;;;;;11.67;9.00;;;;;;;;4994370;28;45563;-95
2022/02/04 00:33:13;;;;;;;;;13.00;12.00;;;;;;;;4977674;28;45592;-96
2022/02/04 00:38:10;;;;;;;;;12.67;9.00;;;;;;;;4993294;28;45485;-95
2022/02/04 00:40:46;;;;;;;;;14.67;11.67;;;;;;;;4993427;28;45974;-95
2022/02/04 00:43:14;;;;;;;;;13.00;13.00;;;;;;;;4975739;28;45548;-95
2022/02/04 00:51:05;;;;;;;;;14.67;12.00;;;;;;;;5035610;28;45439;-95
2022/02/04 01:26:16;;;;;;;;;13.00;10.33;;;;;;;;4954596;28;45453;-95
2022/02/04 01:28:44;;;;;;;;;14.00;10.67;;;;;;;;4937495;28;46094;-95
2022/02/04 01:31:14;;;;;;;;;13.00;13.00;;;;;;;;4939821;28;48081;-95
2022/02/04 01:33:40;;;;;;;;;11.67;9.33;;;;;;;;4941194;28;45735;-95
2022/02/04 01:36:05;;;;;;;;;13.33;8.67;;;;;;;;4941285;28;45458;-95
2022/02/04 01:38:40;;;;;;;;;14.67;9.33;;;;;;;;4940683;28;45796;-96
2022/02/04 01:41:08;;;;;;;;;9.67;9.67;;;;;;;;4941046;28;47433;-95
2022/02/04 01:43:35;;;;;;;;;11.33;11.33;;;;;;;;4940807;28;45463;-95
2022/02/04 01:46:05;;;;;;;;;13.00;10.67;;;;;;;;4940987;28;53306;-95
2022/02/04 01:48:32;;;;;;;;;16.67;13.33;;;;;;;;4956304;28;45502;-95
2022/02/04 01:50:57;;;;;;;;;10.67;10.67;;;;;;;;4940504;28;47403;-95
2022/02/04 01:53:28;;;;;;;;;13.00;13.00;;;;;;;;4941286;28;45365;-96
2022/02/04 01:55:53;;;;;;;;;15.33;13.00;;;;;;;;5013220;28;45384;-96
2022/02/04 01:58:19;;;;;;;;;12.33;10.33;;;;;;;;5020493;28;45392;-95
2022/02/04 02:00:44;;;;;;;;;17.67;13.00;;;;;;;;5019709;28;46969;-95
2022/02/04 02:03:09;;;;;;;;;16.00;11.67;;;;;;;;5020420;28;45354;-95
2022/02/04 02:05:35;;;;;;;;;13.33;11.00;;;;;;;;5020293;28;45418;-96
2022/02/04 02:08:12;;;;;;;;;13.00;13.00;;;;;;;;5017618;28;45467;-96
2022/02/04 02:10:38;;;;;;;;;11.00;10.00;;;;;;;;5017092;28;46862;-95
2022/02/04 02:45:21;;;;;;;;;12.67;12.67;;;;;;;;5043500;28;44928;-95
2022/02/04 03:03:00;;;;;;;;;9.33;8.67;;;;;;;;5017397;28;45438;-95
2022/02/04 03:05:25;;;;;;;;;12.33;7.33;;;;;;;;5009198;28;46589;-95
2022/02/04 03:07:50;;;;;;;;;10.67;9.00;;;;;;;;5008668;28;45860;-95
2022/02/04 03:10:19;;;;;;;;;7.67;7.67;;;;;;;;5017779;28;45461;-94
2022/02/04 03:12:53;;;;;;;;;14.33;10.00;;;;;;;;5019076;28;47103;-95
2022/02/04 03:15:21;;;;;;;;;9.00;9.00;;;;;;;;5017730;28;45551;-95
2022/02/04 03:18:01;;;;;;;;;8.00;7.00;;;;;;;;5018913;28;45354;-95
2022/02/04 03:20:26;;;;;;;;;8.67;7.67;;;;;;;;5012571;28;45512;-95
2022/02/04 03:22:54;;;;;;;;;8.00;5.67;;;;;;;;5019210;28;47971;-95
2022/02/04 03:25:22;;;;;;;;;9.33;6.33;;;;;;;;5018296;28;45579;-95
2022/02/04 03:27:59;;;;;;;;;7.33;7.00;;;;;;;;5018922;28;45538;-95
2022/02/04 03:30:29;;;;;;;;;8.67;7.67;;;;;;;;5019300;28;45528;-96
2022/02/04 03:33:02;;;;;;;;;8.00;5.33;;;;;;;;5018278;28;47184;-95
2022/02/04 03:35:28;;;;;;;;;6.00;5.00;;;;;;;;5018982;28;45521;-95
2022/02/04 03:37:55;;;;;;;;;9.67;9.67;;;;;;;;5018656;28;45431;-94
2022/02/04 03:40:23;;;;;;;;;7.00;6.00;;;;;;;;5018878;28;45453;-95
2022/02/04 03:42:49;;;;;;;;;7.00;5.33;;;;;;;;5018979;28;47193;-95
2022/02/04 03:45:16;;;;;;;;;7.33;7.33;;;;;;;;5018740;28;45486;-95
2022/02/04 03:47:41;;;;;;;;;10.33;7.00;;;;;;;;5018207;28;45455;-95
2022/02/04 03:50:07;;;;;;;;;11.33;8.67;;;;;;;;5018339;28;46017;-95
2022/02/04 03:52:32;;;;;;;;;8.00;8.00;;;;;;;;5017815;28;47153;-95
2022/02/04 03:55:00;;;;;;;;;7.67;7.67;;;;;;;;5018680;28;45993;-95
2022/02/04 03:57:25;;;;;;;;;8.33;6.67;;;;;;;;5018749;28;45430;-95
2022/02/04 03:59:51;;;;;;;;;17.33;9.67;;;;;;;;5001784;28;45605;-95
2022/02/04 04:02:16;;;;;;;;;11.33;7.33;;;;;;;;5010635;28;47715;-95
2022/02/04 04:04:42;;;;;;;;;8.00;8.00;;;;;;;;5018171;28;45626;-95
2022/02/04 04:07:07;;;;;;;;;10.67;7.67;;;;;;;;5018699;28;45316;-94
2022/02/04 04:09:36;;;;;;;;;7.67;7.00;;;;;;;;5019361;28;45425;-95
2022/02/04 04:12:04;;;;;;;;;14.00;8.67;;;;;;;;5018735;28;47344;-94
2022/02/04 04:14:32;;;;;;;;;11.67;11.00;;;;;;;;5016943;28;45754;-95
2022/02/04 04:16:57;;;;;;;;;10.67;9.00;;;;;;;;5008053;28;45332;-94
2022/02/04 04:19:24;;;;;;;;;9.33;8.33;;;;;;;;5014886;28;45528;-95
2022/02/04 04:21:50;;;;;;;;;13.00;10.67;;;;;;;;4998274;28;48180;-95
2022/02/04 04:24:15;;;;;;;;;11.00;9.67;;;;;;;;5018076;28;45523;-96
2022/02/04 04:26:41;;;;;;;;;6.00;6.00;;;;;;;;5018973;28;45167;-95
2022/02/04 04:29:13;;;;;;;;;12.00;10.67;;;;;;;;5018105;28;45505;-95
2022/02/04 04:31:41;;;;;;;;;11.67;9.00;;;;;;;;5018335;28;48076;-95
2022/02/04 04:34:06;;;;;;;;;12.33;10.00;;;;;;;;5018021;28;45739;-95
2022/02/04 04:36:33;;;;;;;;;12.67;10.33;;;;;;;;5019002;28;45466;-95
2022/02/04 04:39:27;;;;;;;;;15.67;14.67;;;;;;;;5018775;28;45445;-95
2022/02/04 05:31:14;;;;;;;;;14.67;12.00;;;;;;;;4958288;28;44910;-96
2022/02/04 05:33:39;;;;;;;;;13.33;12.33;;;;;;;;4938660;28;45457;-95
2022/02/04 05:36:07;;;;;;;;;14.67;13.33;;;;;;;;4953656;28;46948;-95
2022/02/04 05:38:33;;;;;;;;;16.00;12.67;;;;;;;;4933509;28;45527;-94
2022/02/04 05:40:59;;;;;;;;;17.00;14.33;;;;;;;;4947982;28;45449;-95
2022/02/04 05:43:29;;;;;;;;;18.00;15.33;;;;;;;;4940291;28;45919;-94
2022/02/04 05:46:10;;;;;;;;;13.33;11.00;;;;;;;;4941689;28;46849;-94
2022/02/04 05:48:39;;;;;;;;;13.00;11.33;;;;;;;;4940269;28;45497;-95
2022/02/04 05:56:54;;;;;;;;;16.00;16.00;;;;;;;;4956823;28;45961;-94
2022/02/04 06:02:19;;;;;;;;;19.33;14.67;;;;;;;;4953098;28;45572;-95
2022/02/04 06:10:59;;;;;;;;;19.00;13.67;;;;;;;;4957252;28;45276;-95
2022/02/04 06:24:03;;;;;;;;;17.33;13.67;;;;;;;;4957288;28;45529;-94
2022/02/04 06:26:29;;;;;;;;;17.33;14.00;;;;;;;;4957389;28;45556;-95
2022/02/04 06:28:57;;;;;;;;;15.67;14.33;;;;;;;;4956823;28;47294;-94
2022/02/04 06:31:23;;;;;;;;;21.67;15.67;;;;;;;;4977989;28;45267;-95
2022/02/04 06:33:48;;;;;;;;;18.67;15.67;;;;;;;;4977235;28;44740;-94
2022/02/04 06:36:16;;;;;;;;;12.33;11.67;;;;;;;;5000844;28;44901;-95
2022/02/04 06:38:41;;;;;;;;;21.00;16.67;;;;;;;;4982337;28;47142;-95
2022/02/04 06:41:07;;;;;;;;;14.00;14.00;;;;;;;;4982703;28;45194;-95
2022/02/04 06:43:32;;;;;;;;;17.00;13.33;;;;;;;;4981931;28;44883;-95
2022/02/04 06:45:58;;;;;;;;;18.33;16.67;;;;;;;;5019547;28;45389;-95
2022/02/04 06:48:25;;;;;;;;;20.33;15.33;;;;;;;;5016861;28;48127;-95
2022/02/04 06:50:51;;;;;;;;;17.33;12.00;;;;;;;;5020080;28;45530;-95
2022/02/04 06:53:16;;;;;;;;;15.67;13.67;;;;;;;;5021310;28;45746;-95
2022/02/04 06:55:42;;;;;;;;;18.33;14.00;;;;;;;;5016269;28;45306;-95
2022/02/04 06:58:36;;;;;;;;;14.00;14.00;;;;;;;;5019215;28;48084;-96
2022/02/04 07:03:48;;;;;;;;;19.00;14.33;;;;;;;;5016021;28;45388;-95
2022/02/04 07:25:24;;;;;;;;;11.67;11.00;;;;;;;;5761375;22;46404;-91
2022/02/04 07:27:49;;;;;;;;;18.33;13.33;;;;;;;;5013844;28;45572;-90
2022/02/04 07:30:15;;;;;;;;;13.67;12.00;;;;;;;;5032127;28;45481;-91
2022/02/04 07:32:51;;;;;;;;;14.00;11.67;;;;;;;;5012976;28;45412;-92
2022/02/04 07:43:09;;;;;;;;;15.00;13.33;;;;;;;;5032028;28;45399;-92
2022/02/04 07:45:35;;;;;;;;;14.67;13.00;;;;;;;;5017667;28;45616;-93
2022/02/04 07:48:00;;;;;;;;;13.00;12.00;;;;;;;;5010407;28;45573;-92
2022/02/04 07:50:26;;;;;;;;;14.00;12.33;;;;;;;;5004928;28;47348;-93
2022/02/04 07:52:52;;;;;;;;;17.33;11.33;;;;;;;;5005583;28;45762;-93
2022/02/04 07:55:17;;;;;;;;;6.00;3.00;;;;;;;;5014181;28;45357;-93
2022/02/04 07:57:42;;;;;;;;;18.33;13.67;;;;;;;;5010513;28;45406;-92
2022/02/04 08:00:09;;;;;;;;;16.67;10.67;;;;;;;;5007278;28;47119;-93
2022/02/04 08:02:34;;;;;;;;;14.67;13.33;;;;;;;;5012376;28;45541;-93
2022/02/04 08:05:03;;;;;;;;;9.00;8.67;;;;;;;;5031189;28;46506;-92
2022/02/04 08:07:33;;;;;;;;;9.00;9.00;;;;;;;;5011382;28;45612;-92
2022/02/04 08:10:51;;;;;;;;;14.00;11.33;;;;;;;;5013607;28;47784;-92
2022/02/04 08:39:47;;;;;;;;;12.33;9.33;;;;;;;;5026064;28;45675;-96
2022/02/04 08:57:38;;;;;;;;;14.00;11.00;;;;;;;;5030294;28;45579;-92
2022/02/04 09:02:41;;;;;;;;;14.33;9.00;;;;;;;;5029577;28;46365;-91
2022/02/04 09:05:12;;;;;;;;;9.33;8.00;;;;;;;;5003919;28;45562;-92
2022/02/04 09:08:16;;;;;;;;;10.00;8.00;;;;;;;;5013500;28;45394;-92
2022/02/04 09:10:25;;;;;;;;;10.67;8.00;;;;;;;;5026043;28;45341;-92
2022/02/04 09:23:07;;;;;;;;;5.67;5.33;;;;;;;;5031003;28;45567;-94
2022/02/04 09:25:32;;;;;;;;;8.00;7.00;;;;;;;;5014625;28;45866;-95
2022/02/04 09:27:57;;;;;;;;;5.33;5.33;;;;;;;;5016364;28;45525;-94
2022/02/04 09:30:24;;;;;;;;;9.33;9.00;;;;;;;;5017255;28;45304;-94
2022/02/04 09:32:49;;;;;;;;;9.00;9.00;;;;;;;;5010838;28;47226;-93
2022/02/04 09:35:17;;;;;;;;;9.00;8.00;;;;;;;;5019596;28;45436;-93
2022/02/04 09:37:42;;;;;;;;;9.67;8.00;;;;;;;;5019472;28;45502;-93
2022/02/04 09:40:09;;;;;;;;;10.67;8.33;;;;;;;;5018404;28;45621;-91
2022/02/04 09:42:34;;;;;;;;;9.67;8.67;;;;;;;;5027406;28;46477;-92
2022/02/04 09:44:59;;;;;;;;;11.33;7.00;;;;;;;;5010024;28;45507;-93
2022/02/04 09:47:26;;;;;;;;;8.67;7.67;;;;;;;;5006143;28;46302;-92
2022/02/04 09:49:58;;;;;;;;;14.00;8.67;;;;;;;;5025383;28;46530;-91
2022/02/04 10:14:17;;;;;;;;;9.00;8.00;;;;;;;;5032503;28;45318;-92
2022/02/04 10:17:29;;;;;;;;;11.00;9.00;;;;;;;;5013738;28;45359;-91
2022/02/04 10:19:35;;;;;;;;;7.67;7.33;;;;;;;;5017676;28;45546;-92
2022/02/04 10:22:01;;;;;;;;;10.33;9.00;;;;;;;;5030346;28;45466;-91
2022/02/04 10:24:28;;;;;;;;;8.67;7.67;;;;;;;;5022991;28;47275;-93
2022/02/04 10:27:12;;;;;;;;;8.00;8.00;;;;;;;;5021671;28;45330;-92
2022/02/04 10:29:38;;;;;;;;;5.00;5.00;;;;;;;;5020438;28;45327;-92
2022/02/04 10:32:03;;;;;;;;;9.33;8.00;;;;;;;;5029273;28;44865;-92
2022/02/04 10:34:29;;;;;;;;;8.00;7.00;;;;;;;;5031834;28;47554;-92
2022/02/04 10:37:06;;;;;;;;;9.00;5.50;;;;;;;;5035095;28;45394;-93
2022/02/04 10:45:13;;;;;;;;;4.00;4.00;;;;;;;;5028823;28;45454;-93
2022/02/04 10:47:55;;;;;;;;;8.33;4.67;;;;;;;;5016692;28;46310;-92
2022/02/04 10:58:57;;;;;;;;;7.00;3.67;;;;;;;;5032051;28;45372;-92
2022/02/04 11:02:01;;;;;;;;;5.00;5.00;;;;;;;;5034430;28;45456;-92
2022/02/04 11:04:05;;;;;;;;;7.67;5.00;;;;;;;;5029997;28;45613;-92
2022/02/04 11:07:06;;;;;;;;;5.67;5.67;;;;;;;;5010057;28;47704;-92
2022/02/04 11:32:10;;;;;;;;;3.00;3.00;;;;;;;;4955615;28;45477;-94
2022/02/04 11:34:55;;;;;;;;;9.00;4.00;;;;;;;;4938820;28;45641;-93
2022/02/04 11:51:30;;;;;;;;;4.00;4.00;;;;;;;;4897242;28;45917;-93
2022/02/04 11:54:29;;;;;;;;;4.00;3.00;;;;;;;;4959555;28;46287;-94
2022/02/04 11:56:55;;;;;;;;;1.00;1.00;;;;;;;;4958668;28;45407;-95
2022/02/04 11:59:33;;;;;;;;;2.67;2.00;;;;;;;;4955585;28;46840;-94
2022/02/04 12:01:58;;;;;;;;;2.00;2.00;;;;;;;;4945793;28;47444;-91
2022/02/04 12:04:23;;;;;;;;;2.00;2.00;;;;;;;;4947657;28;45567;-92
2022/02/04 12:06:49;;;;;;;;;3.33;3.33;;;;;;;;4939317;28;45374;-92
2022/02/04 12:09:35;;;;;;;;;4.00;3.00;;;;;;;;4940738;28;45447;-94
2022/02/04 12:12:00;;;;;;;;;2.67;2.67;;;;;;;;4951795;28;47620;-92
2022/02/04 12:14:35;;;;;;;;;2.00;2.00;;;;;;;;5013072;28;45516;-89
2022/02/04 12:17:16;;;;;;;;;2.00;2.00;;;;;;;;5008289;28;45945;-88
2022/02/04 12:19:48;;;;;;;;;2.67;1.33;;;;;;;;5027746;28;45609;-89
2022/02/04 12:22:14;;;;;;;;;1.00;1.00;;;;;;;;5027371;28;45681;-89
2022/02/04 12:24:40;;;;;;;;;4.00;1.00;;;;;;;;5015518;28;45495;-92
2022/02/04 12:27:39;;;;;;;;;4.67;2.00;;;;;;;;5013236;28;45460;-91
2022/02/04 12:30:27;;;;;;;;;1.33;1.33;;;;;;;;4947599;28;45526;-93
2022/02/04 12:32:52;;;;;;;;;1.00;1.00;;;;;;;;4948916;28;47784;-89
2022/02/04 12:35:18;;;;;;;;;4.33;3.00;;;;;;;;4951312;28;45470;-91
2022/02/04 12:37:46;;;;;;;;;2.00;2.00;;;;;;;;4965739;28;45579;-91
2022/02/04 12:40:12;;;;;;;;;2.00;2.00;;;;;;;;4968425;28;45529;-90
2022/02/04 12:42:37;;;;;;;;;1.00;1.00;;;;;;;;4955997;28;48555;-90
2022/02/04 12:45:11;;;;;;;;;1.67;1.67;;;;;;;;4954887;28;45839;-91
2022/02/04 12:47:36;;;;;;;;;2.00;1.00;;;;;;;;4959850;28;45791;-90
2022/02/04 12:50:07;;;;;;;;;2.67;2.00;;;;;;;;4974483;28;45520;-92
2022/02/04 12:52:44;;;;;;;;;1.33;1.33;;;;;;;;4952725;28;47472;-92
2022/02/04 12:55:20;;;;;;;;;1.00;1.00;;;;;;;;4954764;28;45884;-91
2022/02/04 12:57:57;;;;;;;;;2.33;1.00;;;;;;;;4967297;28;45604;-92
2022/02/04 13:10:27;;;;;;;;;1.00;1.00;;;;;;;;5031824;28;45588;-90
2022/02/04 13:12:52;;;;;;;;;1.67;1.00;;;;;;;;5013626;28;48305;-91
2022/02/04 13:15:18;;;;;;;;;1.33;1.33;;;;;;;;5014787;28;46131;-92
2022/02/04 13:17:44;;;;;;;;;1.00;1.00;;;;;;;;5014869;28;45568;-93
2022/02/04 13:20:10;;;;;;;;;1.00;1.00;;;;;;;;5018921;28;45496;-90
2022/02/04 13:22:37;;;;;;;;;2.00;2.00;;;;;;;;5010285;28;47991;-92
2022/02/04 13:25:08;;;;;;;;;0.00;0.00;;;;;;;;5018255;28;45749;-92
2022/02/04 13:27:34;;;;;;;;;0.00;0.00;;;;;;;;5039481;28;45406;-90
2022/02/04 13:29:59;;;;;;;;;0.00;0.00;;;;;;;;5031834;28;45317;-91
2022/02/04 13:32:25;;;;;;;;;1.00;1.00;;;;;;;;5013142;28;48208;-90
2022/02/04 13:34:51;;;;;;;;;0.67;0.67;;;;;;;;5017645;28;45458;-90
2022/02/04 13:37:29;;;;;;;;;0.00;0.00;;;;;;;;5034149;28;45391;-91
2022/02/04 13:40:06;;;;;;;;;1.00;1.00;;;;;;;;5013058;28;45703;-90
2022/02/04 13:42:41;;;;;;;;;0.00;0.00;;;;;;;;5018725;28;47085;-90
2022/02/04 13:45:25;;;;;;;;;1.33;1.00;;;;;;;;5020691;28;45503;-90
2022/02/04 13:48:06;;;;;;;;;1.33;1.00;;;;;;;;5028820;28;45568;-89
2022/02/04 13:51:02;;;;;;;;;1.00;1.00;;;;;;;;5022289;28;45486;-90
2022/02/04 13:53:36;;;;;;;;;0.67;0.00;;;;;;;;5020270;28;46682;-90
2022/02/04 13:56:30;;;;;;;;;2.00;1.00;;;;;;;;5021371;28;45824;-90
2022/02/04 13:59:29;;;;;;;;;1.00;0.00;;;;;;;;5021006;28;45479;-91
2022/02/04 14:02:12;;;;;;;;;0.00;0.00;;;;;;;;5027499;28;45538;-91
2022/02/04 14:04:50;;;;;;;;;1.00;1.00;;;;;;;;5031324;28;46446;-90
2022/02/04 14:07:19;;;;;;;;;1.00;1.00;;;;;;;;5034276;27;45512;-91
2022/02/04 14:09:52;;;;;;;;;0.00;0.00;;;;;;;;5038555;28;45369;-90
2022/02/04 14:12:20;;;;;;;;;1.67;1.67;;;;;;;;5019297;28;45429;-92
2022/02/04 14:14:55;;;;;;;;;1.00;1.00;;;;;;;;5019937;28;47212;-92
2022/02/04 14:17:25;;;;;;;;;1.00;1.00;;;;;;;;5039870;28;45871;-90
2022/02/04 14:19:50;;;;;;;;;0.00;0.00;;;;;;;;5042901;28;45381;-91
2022/02/04 14:22:16;;;;;;;;;0.67;0.67;;;;;;;;5022345;28;45637;-91
2022/02/04 14:24:41;;;;;;;;;1.00;1.00;;;;;;;;5032032;28;47016;-92
2022/02/04 14:27:06;;;;;;;;;0.33;0.33;;;;;;;;5024564;28;45467;-91
2022/02/04 14:29:41;;;;;;;;;3.00;2.00;;;;;;;;5015769;28;45524;-91
2022/02/04 14:32:20;;;;;;;;;1.00;1.00;;;;;;;;5031005;28;49810;-91
2022/02/04 14:51:17;;;;;;;;;1.00;1.00;;;;;;;;5036144;28;45514;-92
2022/02/04 14:53:43;;;;;;;;;0.67;0.67;;;;;;;;5030007;28;45313;-90
2022/02/04 14:58:56;;;;;;;;;1.00;1.00;;;;;;;;5034629;28;45804;-92
2022/02/04 15:01:31;;;;;;;;;2.67;2.00;;;;;;;;5028702;28;45490;-93
2022/02/04 15:04:13;;;;;;;;;1.00;1.00;;;;;;;;5016178;28;45458;-95
2022/02/04 15:06:41;;;;;;;;;3.00;1.00;;;;;;;;5018517;28;48276;-94
2022/02/04 15:09:10;;;;;;;;;1.00;1.00;;;;;;;;5017456;28;45361;-94
2022/02/04 15:11:42;;;;;;;;;1.00;1.00;;;;;;;;5010660;28;45600;-94
2022/02/04 15:14:08;;;;;;;;;2.00;1.00;;;;;;;;5018370;28;45326;-94
2022/02/04 15:16:35;;;;;;;;;1.00;1.00;;;;;;;;5019606;28;53195;-96
2022/02/04 15:19:00;;;;;;;;;1.00;1.00;;;;;;;;5013450;28;46811;-91
2022/02/04 15:21:26;;;;;;;;;2.00;1.33;;;;;;;;5016043;28;45424;-93
2022/02/04 15:23:52;;;;;;;;;3.00;2.00;;;;;;;;5009278;28;45682;-94
2022/02/04 15:26:19;;;;;;;;;5.33;5.33;;;;;;;;5005497;28;47182;-93
2022/02/04 15:31:24;;;;;;;;;1.00;1.00;;;;;;;;5030328;28;45481;-92
2022/02/04 15:33:51;;;;;;;;;1.67;1.67;;;;;;;;5005064;28;45456;-92
2022/02/04 15:36:24;;;;;;;;;1.00;1.00;;;;;;;;5008178;28;47418;-94
2022/02/04 15:38:49;;;;;;;;;1.67;1.33;;;;;;;;5015097;28;46282;-93
2022/02/04 15:41:15;;;;;;;;;3.33;2.00;;;;;;;;5011929;28;45736;-93
2022/02/04 15:43:49;;;;;;;;;2.00;2.00;;;;;;;;5024860;28;44882;-96
2022/02/04 15:56:51;;;;;;;;;2.67;1.67;;;;;;;;5045554;28;45431;-96
2022/02/04 16:02:17;;;;;;;;;1.00;1.00;;;;;;;;5043365;28;44786;-96
2022/02/04 16:05:08;;;;;;;;;5.67;3.00;;;;;;;;5025587;28;45604;-96
2022/02/04 16:07:34;;;;;;;;;2.67;1.00;;;;;;;;5005132;28;47235;-96
2022/02/04 16:13:22;;;;;;;;;1.33;1.33;;;;;;;;5050222;28;45357;-96
2022/02/04 16:16:02;;;;;;;;;1.00;1.00;;;;;;;;5071935;28;45822;-96
2022/02/04 16:18:39;;;;;;;;;2.00;2.00;;;;;;;;5019969;28;47210;-96
2022/02/04 16:23:45;;;;;;;;;4.00;4.00;;;;;;;;5035731;28;45380;-96
2022/02/04 16:28:47;;;;;;;;;1.00;1.00;;;;;;;;5038104;28;45053;-96
2022/02/04 16:31:14;;;;;;;;;1.00;1.00;;;;;;;;5021705;28;45454;-96
2022/02/04 16:33:43;;;;;;;;;1.33;1.00;;;;;;;;5016530;28;45404;-96
2022/02/04 16:36:14;;;;;;;;;2.33;2.00;;;;;;;;5023593;28;45447;-96
2022/02/04 16:38:42;;;;;;;;;1.00;1.00;;;;;;;;5017515;28;47475;-96
2022/02/04 16:41:11;;;;;;;;;1.00;1.00;;;;;;;;5020560;28;45680;-96
2022/02/04 16:43:38;;;;;;;;;1.00;1.00;;;;;;;;5018831;28;44792;-96
2022/02/04 16:46:05;;;;;;;;;2.00;1.00;;;;;;;;5017186;28;45405;-96
2022/02/04 16:48:31;;;;;;;;;1.00;1.00;;;;;;;;5021658;28;47384;-96
2022/02/04 16:50:56;;;;;;;;;4.00;2.00;;;;;;;;5021358;28;45710;-96
2022/02/04 16:53:21;;;;;;;;;1.67;1.00;;;;;;;;5020969;28;45492;-96
2022/02/04 16:55:47;;;;;;;;;0.33;0.33;;;;;;;;5020091;28;45315;-96
2022/02/04 16:58:12;;;;;;;;;3.33;1.00;;;;;;;;5020022;28;47221;-96
2022/02/04 17:00:37;;;;;;;;;3.00;1.00;;;;;;;;5019342;28;45418;-96
2022/02/04 17:03:07;;;;;;;;;3.33;3.00;;;;;;;;5022727;28;45267;-96
2022/02/04 17:05:40;;;;;;;;;1.33;1.33;;;;;;;;5019691;28;45361;-96
2022/02/04 17:08:07;;;;;;;;;5.00;2.00;;;;;;;;5020282;28;47921;-96
2022/02/04 17:10:33;;;;;;;;;2.00;2.00;;;;;;;;5017943;28;45858;-96
2022/02/04 17:13:02;;;;;;;;;2.33;2.33;;;;;;;;5021210;28;45497;-96
2022/02/04 17:15:29;;;;;;;;;3.67;3.33;;;;;;;;5022894;28;45680;-96
2022/02/04 17:17:54;;;;;;;;;1.00;1.00;;;;;;;;5028269;28;47411;-96
2022/02/04 17:20:19;;;;;;;;;1.67;1.67;;;;;;;;5019728;28;45570;-96
2022/02/04 17:22:46;;;;;;;;;3.67;3.67;;;;;;;;5021967;28;45550;-95
2022/02/04 17:25:12;;;;;;;;;6.00;6.00;;;;;;;;5020934;28;45542;-94
2022/02/04 17:27:39;;;;;;;;;6.33;6.33;;;;;;;;5028238;28;48047;-95
2022/02/04 17:30:06;;;;;;;;;10.00;7.00;;;;;;;;5021897;28;45920;-95
2022/02/04 17:32:31;;;;;;;;;6.00;6.00;;;;;;;;5021847;28;45642;-96
2022/02/04 17:34:57;;;;;;;;;6.00;4.67;;;;;;;;5023069;28;45657;-96
2022/02/04 17:37:23;;;;;;;;;7.33;7.33;;;;;;;;5020848;28;47200;-96
2022/02/04 17:39:52;;;;;;;;;2.00;1.67;;;;;;;;5023675;28;45318;-96
2022/02/04 17:42:22;;;;;;;;;12.00;9.00;;;;;;;;5007826;28;45382;-96
2022/02/04 17:44:47;;;;;;;;;13.00;9.00;;;;;;;;5021058;28;45246;-96
2022/02/04 17:47:13;;;;;;;;;10.00;8.33;;;;;;;;5021773;28;48011;-96
2022/02/04 17:50:03;;;;;;;;;6.00;6.00;;;;;;;;5035021;28;45544;-96
2022/02/04 18:07:48;;;;;;;;;6.00;3.00;;;;;;;;5013821;28;45523;-89
2022/02/04 18:10:16;;;;;;;;;6.00;6.00;;;;;;;;5001731;28;44678;-93
2022/02/04 18:12:41;;;;;;;;;2.00;2.00;;;;;;;;5003241;28;44757;-94
2022/02/04 18:15:08;;;;;;;;;3.67;3.00;;;;;;;;5016602;28;45052;-93
2022/02/04 18:17:35;;;;;;;;;6.00;6.00;;;;;;;;5004424;28;45276;-90
2022/02/04 18:20:02;;;;;;;;;6.00;5.33;;;;;;;;4997611;28;44838;-90
2022/02/04 18:22:28;;;;;;;;;3.67;3.67;;;;;;;;5016591;28;45432;-90
2022/02/04 18:24:54;;;;;;;;;6.33;5.33;;;;;;;;5002226;28;44860;-93
2022/02/04 18:27:20;;;;;;;;;3.33;3.33;;;;;;;;4999449;28;46076;-91
2022/02/04 18:29:52;;;;;;;;;5.33;4.33;;;;;;;;4984739;28;45431;-94
2022/02/04 18:32:19;;;;;;;;;5.00;5.00;;;;;;;;4996202;28;45446;-91
2022/02/04 18:35:13;;;;;;;;;6.00;4.33;;;;;;;;4986513;28;44750;-90
2022/02/04 18:38:28;;;;;;;;;7.00;5.33;;;;;;;;5005657;28;45231;-94
2022/02/04 18:41:10;;;;;;;;;6.00;6.00;;;;;;;;4997865;28;45512;-96
2022/02/04 18:46:07;;;;;;;;;6.33;6.33;;;;;;;;5019711;28;44793;-89
2022/02/04 18:48:54;;;;;;;;;3.67;3.67;;;;;;;;5007069;28;45728;-93
2022/02/04 18:57:24;;;;;;;;;7.33;3.33;;;;;;;;5018037;28;44882;-91
2022/02/04 18:59:55;;;;;;;;;8.67;4.00;;;;;;;;4995390;28;47560;-96
2022/02/04 19:02:51;;;;;;;;;7.00;5.67;;;;;;;;5024098;28;44847;-91
2022/02/04 19:05:25;;;;;;;;;7.00;4.33;;;;;;;;4970160;28;45399;-94
2022/02/04 19:10:16;;;;;;;;;6.67;5.33;;;;;;;;4953063;28;45566;-92
2022/02/04 19:12:56;;;;;;;;;6.00;6.00;;;;;;;;4948940;28;45343;-94
2022/02/04 19:18:10;;;;;;;;;6.00;6.00;;;;;;;;4943754;28;45491;-95
2022/02/04 19:21:00;;;;;;;;;3.67;3.67;;;;;;;;4949793;28;48223;-95
2022/02/04 19:23:26;;;;;;;;;8.33;7.00;;;;;;;;4956859;28;45421;-93
2022/02/04 19:25:57;;;;;;;;;9.00;7.00;;;;;;;;4936210;28;45425;-95
2022/02/04 19:28:29;;;;;;;;;9.00;6.00;;;;;;;;4944579;28;45570;-93
2022/02/04 19:30:58;;;;;;;;;8.00;5.00;;;;;;;;4961605;28;46534;-95
2022/02/04 19:33:25;;;;;;;;;8.00;7.00;;;;;;;;4957202;28;45952;-95
2022/02/04 19:35:50;;;;;;;;;7.67;7.33;;;;;;;;4955481;28;45354;-95
2022/02/04 19:38:21;;;;;;;;;6.00;5.33;;;;;;;;4980599;28;45408;-94
2022/02/04 19:40:56;;;;;;;;;7.00;6.00;;;;;;;;4996918;28;47312;-94
2022/02/04 19:43:24;;;;;;;;;7.67;4.67;;;;;;;;4998550;28;45519;-94
2022/02/04 19:45:54;;;;;;;;;7.33;6.67;;;;;;;;4977339;28;45405;-95
2022/02/04 19:48:30;;;;;;;;;10.67;8.33;;;;;;;;4980047;28;45555;-94
2022/02/04 19:51:08;;;;;;;;;7.67;5.67;;;;;;;;4980440;28;47278;-93
2022/02/04 20:25:27;;;;;;;;;7.67;7.00;;;;;;;;4948981;28;45480;-92
2022/02/04 20:27:59;;;;;;;;;8.00;7.67;;;;;;;;4949311;28;45480;-92
2022/02/04 20:30:24;;;;;;;;;6.67;5.33;;;;;;;;4937358;28;45624;-93
2022/02/04 20:32:49;;;;;;;;;12.00;8.33;;;;;;;;4947693;28;48010;-94
2022/02/04 20:35:15;;;;;;;;;7.67;3.33;;;;;;;;4939668;28;45762;-91
2022/02/04 20:37:40;;;;;;;;;7.67;7.00;;;;;;;;4909625;28;45765;-91
2022/02/04 20:40:18;;;;;;;;;10.67;7.33;;;;;;;;4899509;28;45532;-93
2022/02/04 20:42:43;;;;;;;;;11.33;7.67;;;;;;;;4917465;28;47402;-95
2022/02/04 20:45:08;;;;;;;;;11.67;8.00;;;;;;;;4918262;28;45813;-91
2022/02/04 20:47:41;;;;;;;;;12.00;9.33;;;;;;;;4932292;28;45466;-93
2022/02/04 20:50:06;;;;;;;;;5.67;5.67;;;;;;;;4931975;28;45478;-92
2022/02/04 20:52:33;;;;;;;;;7.33;6.00;;;;;;;;4951946;28;47562;-92
2022/02/04 20:54:58;;;;;;;;;5.67;4.33;;;;;;;;4975230;28;46048;-92
2022/02/04 20:57:23;;;;;;;;;8.00;7.00;;;;;;;;4964929;28;47101;-92
2022/02/04 20:59:49;;;;;;;;;10.67;8.00;;;;;;;;4975069;28;45572;-92
2022/02/04 21:02:14;;;;;;;;;7.67;7.67;;;;;;;;4968199;28;47189;-92
2022/02/04 21:04:42;;;;;;;;;10.33;7.67;;;;;;;;4973222;28;45571;-91
2022/02/04 21:07:13;;;;;;;;;9.00;4.33;;;;;;;;4974760;28;45502;-92
2022/02/04 21:15:07;;;;;;;;;8.00;8.00;;;;;;;;4987931;28;45484;-91
2022/02/04 21:17:38;;;;;;;;;6.00;4.33;;;;;;;;4970002;28;45554;-91
2022/02/04 21:20:04;;;;;;;;;8.67;7.00;;;;;;;;4969995;28;45442;-94
2022/02/04 21:22:30;;;;;;;;;12.33;10.33;;;;;;;;4976651;28;46869;-95
2022/02/04 21:24:58;;;;;;;;;6.67;6.67;;;;;;;;4980162;28;50101;-95
2022/02/04 21:27:29;;;;;;;;;11.00;9.33;;;;;;;;4996713;28;46022;-95
2022/02/04 21:29:54;;;;;;;;;7.00;6.67;;;;;;;;4983430;28;45562;-94
2022/02/04 21:32:20;;;;;;;;;9.33;6.67;;;;;;;;4982105;28;47041;-94
2022/02/04 21:37:29;;;;;;;;;10.00;6.00;;;;;;;;4994431;28;45565;-95
2022/02/04 21:39:54;;;;;;;;;7.67;6.00;;;;;;;;4980909;28;45532;-95
2022/02/04 21:42:27;;;;;;;;;8.00;6.33;;;;;;;;4981220;28;47041;-95
2022/02/04 21:44:52;;;;;;;;;6.33;4.67;;;;;;;;4994648;28;45377;-95
2022/02/04 21:47:21;;;;;;;;;8.00;6.33;;;;;;;;4999638;28;45300;-96
2022/02/04 21:49:49;;;;;;;;;7.00;6.00;;;;;;;;4983651;28;45683;-95
2022/02/04 21:52:15;;;;;;;;;10.00;5.67;;;;;;;;4982504;28;46931;-94
2022/02/04 21:54:40;;;;;;;;;3.00;3.00;;;;;;;;4983610;28;45323;-95
2022/02/04 21:57:08;;;;;;;;;6.67;5.33;;;;;;;;4983316;28;45515;-94
2022/02/04 21:59:36;;;;;;;;;8.67;5.33;;;;;;;;4983957;28;45472;-95
2022/02/04 22:02:01;;;;;;;;;8.00;6.33;;;;;;;;4993351;28;47521;-95
2022/02/04 22:04:26;;;;;;;;;7.33;6.00;;;;;;;;5022955;28;45677;-95
2022/02/04 22:06:54;;;;;;;;;8.00;7.33;;;;;;;;5023814;28;45135;-95
2022/02/04 22:22:48;;;;;;;;;6.00;5.33;;;;;;;;4941629;28;45933;-95
2022/02/04 22:25:14;;;;;;;;;7.00;6.00;;;;;;;;4937427;28;45424;-96
2022/02/04 22:27:43;;;;;;;;;7.00;3.33;;;;;;;;4937765;28;45456;-95
2022/02/04 22:30:15;;;;;;;;;4.67;3.00;;;;;;;;4933857;28;47030;-96
2022/02/04 22:32:54;;;;;;;;;3.00;3.00;;;;;;;;4938687;28;47184;-96
2022/02/04 22:35:45;;;;;;;;;6.00;5.00;;;;;;;;4922431;28;45567;-95
2022/02/04 22:51:51;;;;;;;;;6.67;5.00;;;;;;;;4979083;28;45481;-96
2022/02/04 22:59:28;;;;;;;;;7.00;5.67;;;;;;;;4978231;28;45409;-94
2022/02/04 23:01:55;;;;;;;;;6.00;5.33;;;;;;;;4963734;28;45699;-93
2022/02/04 23:04:26;;;;;;;;;7.33;6.00;;;;;;;;4977179;28;47292;-96
2022/02/04 23:06:51;;;;;;;;;4.33;4.33;;;;;;;;4968204;28;45341;-95
2022/02/04 23:09:55;;;;;;;;;4.00;3.00;;;;;;;;4960787;28;45309;-96